createdAt,value
2023-05-12T00:01:08.508Z,100723.52
2023-05-12T00:03:35.373Z,100720.50
2023-05-12T00:06:05.264Z,100718.60
2023-05-12T00:08:32.048Z,100717.69
2023-05-12T00:10:58.816Z,100715.01
2023-05-12T00:13:25.537Z,100713.61
2023-05-12T00:15:52.328Z,100710.78
2023-05-12T00:18:19.242Z,100714.54
2023-05-12T00:20:46.021Z,100717.41
2023-05-12T00:23:13.057Z,100719.67
2023-05-12T00:25:39.770Z,100717.56
2023-05-12T00:28:06.419Z,100723.08
2023-05-12T00:30:33.134Z,100723.62
2023-05-12T00:33:00.116Z,100722.55
2023-05-12T00:35:26.885Z,100727.71
2023-05-12T00:37:53.804Z,100727.73
2023-05-12T00:40:20.742Z,100727.45
2023-05-12T00:42:47.954Z,100731.05
2023-05-12T00:45:14.705Z,100734.62
2023-05-12T00:47:41.564Z,100732.13
2023-05-12T00:50:08.832Z,100735.87
2023-05-12T00:52:35.757Z,100733.91
2023-05-12T00:55:02.514Z,100736.77
2023-05-12T00:57:29.325Z,100735.33
2023-05-12T00:59:56.426Z,100744.80
2023-05-12T01:02:23.364Z,100746.60
2023-05-12T01:04:51.545Z,100743.08
2023-05-12T01:07:20.983Z,100745.23
2023-05-12T01:09:48.050Z,100744.00
2023-05-12T01:12:15.283Z,100745.65
2023-05-12T01:14:42.788Z,100746.77
2023-05-12T01:17:13.400Z,100749.89
2023-05-12T01:19:49.435Z,100751.04
2023-05-12T01:22:19.354Z,100755.77
2023-05-12T01:24:57.548Z,100754.92
2023-05-12T01:27:27.371Z,100751.20
2023-05-12T01:29:57.923Z,100751.23
2023-05-12T01:32:25.073Z,100750.75
2023-05-12T01:34:51.916Z,100751.13
2023-05-12T01:37:19.349Z,100751.85
2023-05-12T01:39:46.368Z,100747.92
2023-05-12T01:42:19.410Z,100749.17
2023-05-12T01:44:46.757Z,100749.72
2023-05-12T01:47:15.769Z,100751.34
2023-05-12T01:49:46.490Z,100753.48
2023-05-12T01:52:15.461Z,100754.73
2023-05-12T01:54:42.095Z,100748.14
2023-05-12T01:57:09.036Z,100751.05
2023-05-12T01:59:37.057Z,100750.94
2023-05-12T02:02:05.307Z,100754.59
2023-05-12T02:04:32.161Z,100756.59
2023-05-12T02:06:59.754Z,100754.72
2023-05-12T02:09:26.714Z,100753.88
2023-05-12T02:11:56.298Z,100756.73
2023-05-12T02:14:23.001Z,100758.17
2023-05-12T02:16:52.749Z,100759.24
2023-05-12T02:19:20.826Z,100759.46
2023-05-12T02:21:48.436Z,100757.38
2023-05-12T02:24:16.614Z,100761.66
2023-05-12T02:26:43.658Z,100760.95
2023-05-12T02:29:11.679Z,100761.14
2023-05-12T02:31:38.467Z,100759.89
2023-05-12T02:34:12.892Z,100757.22
2023-05-12T02:36:39.533Z,100759.73
2023-05-12T02:39:06.165Z,100760.25
2023-05-12T02:41:32.903Z,100763.61
2023-05-12T02:43:59.806Z,100763.25
2023-05-12T02:46:26.581Z,100769.29
2023-05-12T02:48:53.658Z,100769.60
2023-05-12T02:51:20.369Z,100763.52
2023-05-12T02:53:47.191Z,100769.02
2023-05-12T02:56:13.909Z,100768.27
2023-05-12T02:58:40.657Z,100768.80
2023-05-12T03:01:11.253Z,100774.56
2023-05-12T03:03:39.186Z,100781.27
2023-05-12T03:06:06.648Z,100777.98
2023-05-12T03:08:33.304Z,100773.63
2023-05-12T03:11:00.094Z,100778.08
2023-05-12T03:13:26.793Z,100782.33
2023-05-12T03:15:53.512Z,100784.63
2023-05-12T03:18:20.691Z,100786.39
2023-05-12T03:20:47.454Z,100795.11
2023-05-12T03:23:14.192Z,100799.20
2023-05-12T03:25:40.896Z,100800.05
2023-05-12T03:28:07.658Z,100798.16
2023-05-12T03:30:34.408Z,100806.60
2023-05-12T03:33:01.253Z,100811.83
2023-05-12T03:35:28.099Z,100814.17
2023-05-12T03:37:54.834Z,100817.96
2023-05-12T03:40:21.997Z,100817.64
2023-05-12T03:42:48.854Z,100817.13
2023-05-12T03:45:17.993Z,100817.14
2023-05-12T03:47:44.747Z,100819.83
2023-05-12T03:50:11.721Z,100822.89
2023-05-12T03:52:41.130Z,100824.88
2023-05-12T03:55:08.204Z,100822.93
2023-05-12T03:57:36.711Z,100828.46
2023-05-12T04:00:05.246Z,100826.88
2023-05-12T04:02:39.527Z,100825.81
2023-05-12T04:05:08.274Z,100824.73
2023-05-12T04:07:35.576Z,100827.74
2023-05-12T04:10:02.861Z,100830.00
2023-05-12T04:12:29.738Z,100834.90
2023-05-12T04:14:57.303Z,100838.14
2023-05-12T04:17:24.870Z,100841.88
2023-05-12T04:19:53.440Z,100845.42
2023-05-12T04:23:47.598Z,100849.85
2023-05-12T04:26:14.414Z,100855.82
2023-05-12T04:28:41.219Z,100857.11
2023-05-12T04:31:08.774Z,100863.97
2023-05-12T04:33:36.447Z,100869.79
2023-05-12T04:36:05.693Z,100872.40
2023-05-12T04:38:32.347Z,100877.88
2023-05-12T04:40:59.979Z,100879.77
2023-05-12T04:45:59.760Z,100885.17
2023-05-12T04:48:29.102Z,100884.73
2023-05-12T04:50:59.116Z,100883.54
2023-05-12T04:53:26.849Z,100887.88
2023-05-12T04:55:53.637Z,100891.16
2023-05-12T04:58:20.563Z,100891.01
2023-05-12T05:00:47.824Z,100894.27
2023-05-12T05:03:14.659Z,100894.29
2023-05-12T05:05:41.564Z,100894.30
2023-05-12T05:08:08.356Z,100896.64
2023-05-12T05:10:35.318Z,100899.16
2023-05-12T05:13:02.889Z,100905.42
2023-05-12T05:15:29.736Z,100906.52
2023-05-12T05:17:56.614Z,100908.70
2023-05-12T05:20:27.955Z,100911.27
2023-05-12T05:22:56.136Z,100917.02
2023-05-12T05:25:22.951Z,100919.36
2023-05-12T05:27:49.672Z,100923.50
2023-05-12T05:30:17.072Z,100926.71
2023-05-12T05:32:44.617Z,100923.83
2023-05-12T05:35:11.506Z,100929.80
2023-05-12T05:37:42.727Z,100927.27
2023-05-12T05:40:09.877Z,100928.13
2023-05-12T05:42:36.634Z,100930.40
2023-05-12T05:45:03.628Z,100928.88
2023-05-12T05:47:31.967Z,100934.39
2023-05-12T05:49:58.776Z,100935.74
2023-05-12T05:52:26.140Z,100935.08
2023-05-12T05:54:52.796Z,100940.75
2023-05-12T05:57:21.349Z,100945.30
2023-05-12T05:59:48.571Z,100946.61
2023-05-12T06:02:16.589Z,100944.84
2023-05-12T06:04:43.332Z,100945.41
2023-05-12T06:07:09.978Z,100944.52
2023-05-12T06:09:36.677Z,100944.75
2023-05-12T06:12:03.333Z,100951.95
2023-05-12T06:14:30.165Z,100951.30
2023-05-12T06:16:57.108Z,100950.11
2023-05-12T06:19:24.008Z,100956.80
2023-05-12T06:21:52.776Z,100959.02
2023-05-12T06:24:19.515Z,100959.48
2023-05-12T06:26:46.362Z,100961.90
2023-05-12T06:29:13.610Z,100962.68
2023-05-12T06:31:40.343Z,100963.08
2023-05-12T06:34:08.455Z,100966.64
2023-05-12T06:36:35.112Z,100967.52
2023-05-12T06:39:02.133Z,100966.62
2023-05-12T06:41:29.148Z,100967.49
2023-05-12T06:43:55.954Z,100965.35
2023-05-12T06:46:27.560Z,100970.10
2023-05-12T06:48:55.752Z,100971.79
2023-05-12T06:51:22.366Z,100972.27
2023-05-12T06:53:49.116Z,100978.91
2023-05-12T06:56:17.071Z,100981.89
2023-05-12T06:58:44.078Z,100978.42
2023-05-12T07:01:10.977Z,100975.33
2023-05-12T07:03:37.712Z,100976.40
2023-05-12T07:06:04.755Z,100977.73
2023-05-12T07:08:31.445Z,100980.17
2023-05-12T07:11:00.346Z,100986.02
2023-05-12T07:13:27.060Z,100984.56
2023-05-12T07:15:53.768Z,100985.30
2023-05-12T07:18:20.500Z,100989.31
2023-05-12T07:20:47.334Z,100986.89
2023-05-12T07:23:14.125Z,100990.17
2023-05-12T07:25:40.895Z,100990.44
2023-05-12T07:28:07.675Z,100993.30
2023-05-12T07:30:34.366Z,100989.11
2023-05-12T07:33:01.455Z,100990.14
2023-05-12T07:35:28.526Z,100994.06
2023-05-12T07:37:55.157Z,100994.88
2023-05-12T07:40:21.792Z,100995.02
2023-05-12T07:42:48.526Z,100990.67
2023-05-12T07:45:22.872Z,100991.15
2023-05-12T07:47:50.811Z,100990.20
2023-05-12T07:50:18.431Z,100993.16
2023-05-12T07:52:49.371Z,100991.29
2023-05-12T07:55:16.845Z,100992.66
2023-05-12T07:57:43.802Z,100990.17
2023-05-12T08:00:11.332Z,100984.38
2023-05-12T08:02:41.798Z,100985.16
2023-05-12T08:05:09.837Z,100987.54
2023-05-12T08:07:37.283Z,100987.97
2023-05-12T08:10:07.162Z,100981.77
2023-05-12T08:12:33.926Z,100983.01
2023-05-12T08:15:00.836Z,100982.80
2023-05-12T08:17:29.279Z,100982.33
2023-05-12T08:19:56.567Z,100979.78
2023-05-12T08:22:23.320Z,100983.02
2023-05-12T08:24:50.082Z,100978.42
2023-05-12T08:27:17.949Z,100974.63
2023-05-12T08:29:44.610Z,100975.57
2023-05-12T08:32:11.950Z,100972.95
2023-05-12T08:34:38.650Z,100972.15
2023-05-12T08:37:05.473Z,100972.71
2023-05-12T08:39:33.972Z,100972.08
2023-05-12T08:42:50.443Z,100970.72
2023-05-12T08:45:17.210Z,100966.07
2023-05-12T08:47:44.982Z,100956.48
2023-05-12T08:50:11.778Z,100953.48
2023-05-12T08:52:38.499Z,100959.20
2023-05-12T08:55:06.984Z,100959.11
2023-05-12T08:57:33.652Z,100960.17
2023-05-12T09:00:00.397Z,100956.23
2023-05-12T09:02:32.732Z,100956.66
2023-05-12T09:05:04.927Z,100950.50
2023-05-12T09:07:32.217Z,100952.48
2023-05-12T09:09:58.984Z,100956.83
2023-05-12T09:12:26.189Z,100959.04
2023-05-12T09:14:59.199Z,100955.75
2023-05-12T09:17:26.247Z,100958.85
2023-05-12T09:19:53.092Z,100961.08
2023-05-12T09:22:28.568Z,100962.04
2023-05-12T09:24:55.828Z,100952.34
2023-05-12T09:27:29.394Z,100949.92
2023-05-12T09:29:59.618Z,100947.83
2023-05-12T09:32:31.881Z,100944.52
2023-05-12T09:35:03.885Z,100946.70
2023-05-12T09:37:32.456Z,100939.52
2023-05-12T09:40:03.021Z,100937.92
2023-05-12T09:42:30.583Z,100936.73
2023-05-12T09:45:04.759Z,100940.89
2023-05-12T09:47:36.271Z,100939.38
2023-05-12T09:50:04.090Z,100937.79
2023-05-12T09:52:33.115Z,100933.05
2023-05-12T09:55:13.292Z,100935.38
2023-05-12T09:57:41.180Z,100938.67
2023-05-12T10:00:16.946Z,100936.98
2023-05-12T10:02:55.675Z,100936.40
2023-05-12T10:05:22.533Z,100941.08
2023-05-12T10:07:50.951Z,100940.22
2023-05-12T10:10:23.503Z,100938.98
2023-05-12T10:12:50.283Z,100931.75
2023-05-12T10:15:17.672Z,100930.57
2023-05-12T10:17:44.763Z,100931.38
2023-05-12T10:20:11.710Z,100926.88
2023-05-12T10:22:38.910Z,100921.27
2023-05-12T10:25:06.947Z,100921.42
2023-05-12T10:27:33.619Z,100917.71
2023-05-12T10:30:01.540Z,100915.11
2023-05-12T10:32:28.261Z,100909.34
2023-05-12T10:34:55.067Z,100907.19
2023-05-12T10:37:23.261Z,100908.73
2023-05-12T10:39:52.293Z,100909.48
2023-05-12T10:42:25.644Z,100908.62
2023-05-12T10:44:53.229Z,100907.08
2023-05-12T10:47:26.841Z,100907.97
2023-05-12T10:49:58.720Z,100899.81
2023-05-12T10:52:25.989Z,100896.58
2023-05-12T10:54:59.910Z,100895.13
2023-05-12T10:57:27.049Z,100894.38
2023-05-12T10:59:58.612Z,100889.42
2023-05-12T11:02:30.824Z,100890.77
2023-05-12T11:05:00.257Z,100884.96
2023-05-12T11:07:30.320Z,100884.98
2023-05-12T11:10:01.273Z,100884.10
2023-05-12T11:12:32.549Z,100872.73
2023-05-12T11:15:00.684Z,100872.83
2023-05-12T11:17:27.645Z,100870.58
2023-05-12T11:19:55.124Z,100871.27
2023-05-12T11:22:22.586Z,100867.79
2023-05-12T11:24:49.698Z,100868.92
2023-05-12T11:27:18.264Z,100866.25
2023-05-12T11:29:47.147Z,100862.70
2023-05-12T11:32:15.640Z,100860.98
2023-05-12T11:34:42.603Z,100859.86
2023-05-12T11:37:09.409Z,100858.77
2023-05-12T11:39:36.286Z,100857.52
2023-05-12T11:42:13.087Z,100850.06
2023-05-12T11:44:47.979Z,100843.57
2023-05-12T11:47:15.622Z,100842.61
2023-05-12T11:49:53.255Z,100843.39
2023-05-12T11:52:21.019Z,100836.93
2023-05-12T11:54:51.957Z,100836.77
2023-05-12T11:57:31.826Z,100831.65
2023-05-12T12:00:06.960Z,100833.10
2023-05-12T12:02:34.049Z,100828.49
2023-05-12T12:05:00.970Z,100824.17
2023-05-12T12:07:36.495Z,100819.69
2023-05-12T12:10:16.432Z,100813.91
2023-05-12T12:12:43.302Z,100810.60
2023-05-12T12:15:10.989Z,100811.98
2023-05-12T12:17:38.263Z,100808.00
2023-05-12T12:20:06.495Z,100806.91
2023-05-12T12:22:34.611Z,100803.03
2023-05-12T12:25:02.465Z,100811.39
2023-05-12T12:27:29.214Z,100804.43
2023-05-12T12:29:55.945Z,100801.71
2023-05-12T12:32:22.643Z,100795.63
2023-05-12T12:34:49.510Z,100789.70
2023-05-12T12:37:17.157Z,100786.21
2023-05-12T12:39:43.974Z,100780.22
2023-05-12T12:42:10.598Z,100780.15
2023-05-12T12:44:37.264Z,100780.04
2023-05-12T12:47:04.732Z,100776.48
2023-05-12T12:49:31.431Z,100771.70
2023-05-12T12:51:58.153Z,100766.05
2023-05-12T12:54:27.337Z,100764.21
2023-05-12T12:56:55.558Z,100765.59
2023-05-12T12:59:22.546Z,100761.64
2023-05-12T13:01:49.303Z,100760.66
2023-05-12T13:04:17.252Z,100762.23
2023-05-12T13:06:43.926Z,100766.84
2023-05-12T13:09:10.831Z,100765.68
2023-05-12T13:11:37.630Z,100753.92
2023-05-12T13:14:05.007Z,100752.01
2023-05-12T13:16:31.725Z,100753.59
2023-05-12T13:18:58.905Z,100753.75
2023-05-12T13:21:25.731Z,100749.78
2023-05-12T13:23:52.354Z,100749.64
2023-05-12T13:26:19.055Z,100745.61
2023-05-12T13:28:45.807Z,100746.91
2023-05-12T13:31:12.476Z,100742.14
2023-05-12T13:33:39.318Z,100744.06
2023-05-12T13:36:06.642Z,100735.49
2023-05-12T13:38:33.965Z,100734.86
2023-05-12T13:41:00.688Z,100731.09
2023-05-12T13:43:27.404Z,100727.90
2023-05-12T13:45:54.110Z,100727.69
2023-05-12T13:48:21.052Z,100724.15
2023-05-12T13:50:47.979Z,100716.55
2023-05-12T13:53:14.647Z,100718.00
2023-05-12T13:55:41.392Z,100718.27
2023-05-12T13:58:08.099Z,100712.90
2023-05-12T14:00:34.939Z,100707.81
2023-05-12T14:03:01.775Z,100706.50
2023-05-12T14:05:28.934Z,100701.30
2023-05-12T14:07:55.810Z,100698.98
2023-05-12T14:10:22.447Z,100703.29
2023-05-12T14:12:49.422Z,100699.34
2023-05-12T14:17:45.854Z,100694.29
2023-05-12T14:20:12.717Z,100693.91
2023-05-12T14:22:39.528Z,100693.70
2023-05-12T14:25:06.592Z,100691.52
2023-05-12T14:27:33.273Z,100693.84
2023-05-12T14:29:59.943Z,100690.86
2023-05-12T14:32:26.821Z,100686.01
2023-05-12T14:34:53.525Z,100690.55
2023-05-12T14:37:20.334Z,100688.17
2023-05-12T14:39:47.095Z,100681.67
2023-05-12T14:42:13.827Z,100684.37
2023-05-12T14:44:40.667Z,100685.98
2023-05-12T14:47:09.128Z,100682.52
2023-05-12T14:49:36.105Z,100683.49
2023-05-12T14:52:03.041Z,100676.23
2023-05-12T14:54:29.658Z,100676.63
2023-05-12T14:56:56.778Z,100675.44
2023-05-12T14:59:23.516Z,100680.65
2023-05-12T15:01:50.317Z,100678.60
2023-05-12T15:04:17.145Z,100677.58
2023-05-12T15:06:43.807Z,100673.91
2023-05-12T15:09:10.597Z,100667.11
2023-05-12T15:11:37.829Z,100666.76
2023-05-12T15:14:04.977Z,100669.67
2023-05-12T15:16:33.180Z,100673.09
2023-05-12T15:19:00.018Z,100669.29
2023-05-12T15:21:26.894Z,100669.09
2023-05-12T15:23:53.520Z,100669.00
2023-05-12T15:26:32.785Z,100666.58
2023-05-12T15:29:01.716Z,100667.45
2023-05-12T15:31:29.227Z,100663.92
2023-05-12T15:33:56.759Z,100660.17
2023-05-12T15:36:23.502Z,100659.60
2023-05-12T15:38:50.169Z,100658.39
2023-05-12T15:41:16.813Z,100654.45
2023-05-12T15:43:43.499Z,100650.92
2023-05-12T15:46:11.612Z,100653.34
2023-05-12T15:48:39.423Z,100654.13
2023-05-12T15:51:07.817Z,100654.09
2023-05-12T15:53:34.660Z,100657.69
2023-05-12T15:56:02.039Z,100654.98
2023-05-12T15:58:29.075Z,100656.86
2023-05-12T16:00:55.960Z,100652.23
2023-05-12T16:03:23.668Z,100653.34
2023-05-12T16:05:50.656Z,100657.36
2023-05-12T16:08:17.395Z,100651.92
2023-05-12T16:10:44.146Z,100653.16
2023-05-12T16:13:10.836Z,100650.96
2023-05-12T16:15:37.607Z,100651.14
2023-05-12T16:18:06.381Z,100651.14
2023-05-12T16:20:34.432Z,100646.46
2023-05-12T16:23:01.180Z,100649.27
2023-05-12T16:25:27.963Z,100646.55
2023-05-12T16:27:54.595Z,100648.91
2023-05-12T16:30:21.353Z,100647.48
2023-05-12T16:32:48.038Z,100649.28
2023-05-12T16:35:14.795Z,100647.63
2023-05-12T16:40:39.995Z,100646.38
2023-05-12T16:43:06.884Z,100646.66
2023-05-12T16:45:33.656Z,100644.48
2023-05-12T16:48:00.462Z,100646.23
2023-05-12T16:50:27.305Z,100649.04
2023-05-12T16:52:54.147Z,100650.78
2023-05-12T16:55:21.466Z,100649.93
2023-05-12T16:57:48.341Z,100648.96
2023-05-12T17:00:16.147Z,100651.05
2023-05-12T17:02:42.917Z,100648.66
2023-05-12T17:05:09.865Z,100654.10
2023-05-12T17:07:36.592Z,100657.38
2023-05-12T17:10:03.433Z,100653.16
2023-05-12T17:12:30.161Z,100653.66
2023-05-12T17:15:07.008Z,100648.56
2023-05-12T17:17:43.875Z,100648.55
2023-05-12T17:20:11.729Z,100652.85
2023-05-12T17:22:42.023Z,100650.03
2023-05-12T17:25:09.341Z,100649.27
2023-05-12T17:27:36.556Z,100652.20
2023-05-12T17:30:04.613Z,100648.70
2023-05-12T17:32:31.657Z,100652.10
2023-05-12T17:34:58.357Z,100650.84
2023-05-12T17:37:25.446Z,100649.88
2023-05-12T17:39:52.514Z,100646.14
2023-05-12T17:42:19.263Z,100647.11
2023-05-12T17:44:46.060Z,100644.73
2023-05-12T17:47:15.987Z,100648.61
2023-05-12T17:49:42.731Z,100646.55
2023-05-12T17:52:09.359Z,100647.71
2023-05-12T17:54:36.551Z,100648.69
2023-05-12T17:57:03.337Z,100651.00
2023-05-12T17:59:30.040Z,100650.77
2023-05-12T18:01:56.802Z,100651.52
2023-05-12T18:04:23.671Z,100654.41
2023-05-12T18:06:50.349Z,100656.02
2023-05-12T18:09:17.804Z,100652.59
2023-05-12T18:11:44.840Z,100656.75
2023-05-12T18:14:11.538Z,100653.98
2023-05-12T18:16:38.363Z,100655.82
2023-05-12T18:19:05.125Z,100656.75
2023-05-12T18:21:32.751Z,100658.77
2023-05-12T18:23:59.511Z,100656.66
2023-05-12T18:26:26.852Z,100661.70
2023-05-12T18:28:53.516Z,100664.96
2023-05-12T18:31:20.364Z,100668.44
2023-05-12T18:33:47.961Z,100667.91
2023-05-12T18:36:15.208Z,100672.95
2023-05-12T18:38:42.442Z,100668.95
2023-05-12T18:41:09.382Z,100673.19
2023-05-12T18:43:36.768Z,100670.02
2023-05-12T18:46:03.823Z,100670.06
2023-05-12T18:48:31.196Z,100674.61
2023-05-12T18:50:57.927Z,100673.60
2023-05-12T18:53:24.860Z,100671.05
2023-05-12T18:55:51.652Z,100675.76
2023-05-12T18:58:18.412Z,100675.91
2023-05-12T19:00:45.121Z,100672.92
2023-05-12T19:03:11.904Z,100672.06
2023-05-12T19:05:43.181Z,100675.03
2023-05-12T19:08:10.937Z,100678.09
2023-05-12T19:10:39.695Z,100673.58
2023-05-12T19:13:06.866Z,100679.96
2023-05-12T19:15:33.520Z,100679.38
2023-05-12T19:18:00.403Z,100670.45
2023-05-12T19:20:28.304Z,100677.38
2023-05-12T19:22:55.246Z,100676.05
2023-05-12T19:25:22.357Z,100677.29
2023-05-12T19:27:49.241Z,100674.24
2023-05-12T19:30:16.700Z,100680.09
2023-05-12T19:32:46.242Z,100675.31
2023-05-12T19:35:14.400Z,100670.82
2023-05-12T19:37:41.039Z,100668.61
2023-05-12T19:40:08.292Z,100666.55
2023-05-12T19:42:37.776Z,100662.27
2023-05-12T19:45:05.251Z,100665.05
2023-05-12T19:47:33.520Z,100665.23
2023-05-12T19:50:00.639Z,100667.77
2023-05-12T19:52:30.464Z,100667.77
2023-05-12T19:54:57.386Z,100667.48
2023-05-12T19:57:24.080Z,100668.36
2023-05-12T19:59:50.870Z,100666.13
2023-05-12T20:02:17.666Z,100666.64
2023-05-12T20:04:44.372Z,100663.71
2023-05-12T20:07:11.069Z,100661.89
2023-05-12T20:09:37.800Z,100664.29
2023-05-12T20:12:07.947Z,100658.81
2023-05-12T20:14:35.689Z,100661.61
2023-05-12T20:17:05.675Z,100657.91
2023-05-12T20:19:33.231Z,100664.27
2023-05-12T20:22:00.061Z,100672.36
2023-05-12T20:24:26.834Z,100668.14
2023-05-12T20:26:53.738Z,100669.88
2023-05-12T20:29:20.911Z,100677.14
2023-05-12T20:31:50.888Z,100680.96
2023-05-12T20:34:18.651Z,100682.44
2023-05-12T20:36:45.445Z,100681.58
2023-05-12T20:39:12.726Z,100680.73
2023-05-12T20:41:40.152Z,100687.23
2023-05-12T20:44:07.034Z,100682.13
2023-05-12T20:46:37.107Z,100686.83
2023-05-12T20:49:04.985Z,100690.04
2023-05-12T20:51:32.486Z,100690.65
2023-05-12T20:53:59.406Z,100691.91
2023-05-12T20:56:27.106Z,100697.87
2023-05-12T20:58:54.061Z,100698.02
2023-05-12T21:01:20.851Z,100695.68
2023-05-12T21:03:47.736Z,100700.81
2023-05-12T21:06:14.901Z,100698.75
2023-05-12T21:08:41.624Z,100702.02
2023-05-12T21:11:16.107Z,100707.96
2023-05-12T21:13:44.180Z,100707.33
2023-05-12T21:16:11.329Z,100703.60
2023-05-12T21:18:38.267Z,100703.45
2023-05-12T21:21:06.126Z,100711.84
2023-05-12T21:23:32.880Z,100710.23
2023-05-12T21:25:59.726Z,100709.16
2023-05-12T21:28:26.777Z,100710.05
2023-05-12T21:30:53.475Z,100708.48
2023-05-12T21:33:20.115Z,100713.40
2023-05-12T21:35:47.001Z,100713.85
2023-05-12T21:38:13.752Z,100721.94
2023-05-12T21:40:40.458Z,100721.59
2023-05-12T21:43:07.197Z,100719.50
2023-05-12T21:45:33.915Z,100718.64
2023-05-12T21:48:00.703Z,100717.48
2023-05-12T21:50:27.440Z,100717.45
2023-05-12T21:52:54.084Z,100718.60
2023-05-12T21:55:20.912Z,100723.56
2023-05-12T21:57:47.611Z,100723.70
2023-05-12T22:00:15.164Z,100722.71
2023-05-12T22:02:42.135Z,100718.92
2023-05-12T22:05:09.056Z,100719.84
2023-05-12T22:07:35.795Z,100719.48
2023-05-12T22:10:03.725Z,100719.11
2023-05-12T22:12:30.474Z,100720.96
2023-05-12T22:14:57.213Z,100721.27
2023-05-12T22:17:23.920Z,100723.34
2023-05-12T22:19:50.996Z,100722.65
2023-05-12T22:22:17.975Z,100724.60
2023-05-12T22:24:44.640Z,100724.41
2023-05-12T22:27:11.656Z,100724.95
2023-05-12T22:29:38.289Z,100728.52
2023-05-12T22:32:05.552Z,100728.89
2023-05-12T22:34:32.207Z,100731.33
2023-05-12T22:36:58.872Z,100732.16
2023-05-12T22:39:25.680Z,100730.71
2023-05-12T22:41:52.398Z,100732.02
2023-05-12T22:44:19.062Z,100732.46
2023-05-12T22:46:45.980Z,100734.00
2023-05-12T22:49:12.683Z,100735.04
2023-05-12T22:51:39.380Z,100736.23
2023-05-12T22:54:06.136Z,100733.98
2023-05-12T22:56:32.782Z,100736.74
2023-05-12T22:58:59.456Z,100735.34
2023-05-12T23:01:26.107Z,100734.13
2023-05-12T23:03:52.904Z,100735.05
2023-05-12T23:06:19.800Z,100734.95
2023-05-12T23:08:46.480Z,100735.77
2023-05-12T23:11:13.236Z,100734.83
2023-05-12T23:13:40.262Z,100734.89
2023-05-12T23:16:07.416Z,100733.25
2023-05-12T23:18:34.221Z,100730.63
2023-05-12T23:21:00.939Z,100730.10
2023-05-12T23:23:27.569Z,100733.61
2023-05-12T23:25:54.294Z,100734.39
2023-05-12T23:28:21.023Z,100733.15
2023-05-12T23:30:47.632Z,100733.69
2023-05-12T23:33:14.441Z,100735.85
2023-05-12T23:35:41.176Z,100737.85
2023-05-12T23:38:08.111Z,100739.20
2023-05-12T23:40:39.021Z,100742.33
2023-05-12T23:43:06.405Z,100743.47
2023-05-12T23:45:33.224Z,100745.05
2023-05-12T23:48:00.189Z,100745.39
2023-05-12T23:50:27.205Z,100744.13
2023-05-12T23:52:53.987Z,100749.14
2023-05-12T23:55:21.525Z,100752.90
2023-05-12T23:57:48.367Z,100749.14
